sensor_id;sensor_type;location;lat;lon;timestamp;P1;durP1;ratioP1;P2;durP2;ratioP2
56519;SDS011;42420;53.586;10.052;2023-03-23T00:03:11;9.45;;;4.70;;
56519;SDS011;42420;53.586;10.052;2023-03-23T00:08:12;7.50;;;4.78;;
56519;SDS011;42420;53.586;10.052;2023-03-23T00:13:10;12.80;;;5.28;;
56519;SDS011;42420;53.586;10.052;2023-03-23T00:18:10;9.40;;;5.45;;
56519;SDS011;42420;53.586;10.052;2023-03-23T00:23:19;9.20;;;5.78;;
56519;SDS011;42420;53.586;10.052;2023-03-23T00:28:16;9.52;;;5.88;;
56519;SDS011;42420;53.586;10.052;2023-03-23T00:33:14;10.07;;;5.97;;
56519;SDS011;42420;53.586;10.052;2023-03-23T00:38:12;9.57;;;6.20;;
56519;SDS011;42420;53.586;10.052;2023-03-23T00:43:07;10.93;;;6.57;;
56519;SDS011;42420;53.586;10.052;2023-03-23T00:48:03;9.83;;;6.50;;
56519;SDS011;42420;53.586;10.052;2023-03-23T00:53:00;11.85;;;7.43;;
56519;SDS011;42420;53.586;10.052;2023-03-23T00:57:55;9.10;;;6.17;;
56519;SDS011;42420;53.586;10.052;2023-03-23T01:02:52;9.10;;;6.77;;
56519;SDS011;42420;53.586;10.052;2023-03-23T01:07:48;9.32;;;6.40;;
56519;SDS011;42420;53.586;10.052;2023-03-23T01:12:45;9.05;;;6.45;;
56519;SDS011;42420;53.586;10.052;2023-03-23T01:17:41;9.95;;;7.07;;
56519;SDS011;42420;53.586;10.052;2023-03-23T01:22:37;9.55;;;6.93;;
56519;SDS011;42420;53.586;10.052;2023-03-23T01:27:34;10.07;;;7.43;;
56519;SDS011;42420;53.586;10.052;2023-03-23T01:32:29;10.87;;;7.60;;
56519;SDS011;42420;53.586;10.052;2023-03-23T01:37:25;11.37;;;7.70;;
56519;SDS011;42420;53.586;10.052;2023-03-23T01:42:22;12.23;;;7.72;;
56519;SDS011;42420;53.586;10.052;2023-03-23T01:47:21;14.13;;;8.27;;
56519;SDS011;42420;53.586;10.052;2023-03-23T01:52:24;12.02;;;7.93;;
56519;SDS011;42420;53.586;10.052;2023-03-23T01:57:27;11.55;;;7.88;;
56519;SDS011;42420;53.586;10.052;2023-03-23T02:02:26;13.18;;;8.77;;
56519;SDS011;42420;53.586;10.052;2023-03-23T02:07:21;12.53;;;7.93;;
56519;SDS011;42420;53.586;10.052;2023-03-23T02:38:37;11.65;;;7.13;;
56519;SDS011;42420;53.586;10.052;2023-03-23T02:43:40;9.30;;;6.68;;
56519;SDS011;42420;53.586;10.052;2023-03-23T02:48:38;9.50;;;6.15;;
56519;SDS011;42420;53.586;10.052;2023-03-23T02:53:40;8.93;;;5.78;;
56519;SDS011;42420;53.586;10.052;2023-03-23T02:58:37;8.82;;;5.85;;
56519;SDS011;42420;53.586;10.052;2023-03-23T03:03:34;8.40;;;5.87;;
56519;SDS011;42420;53.586;10.052;2023-03-23T03:08:42;9.38;;;5.22;;
56519;SDS011;42420;53.586;10.052;2023-03-23T03:13:46;8.23;;;5.22;;
56519;SDS011;42420;53.586;10.052;2023-03-23T03:18:53;9.18;;;5.63;;
56519;SDS011;42420;53.586;10.052;2023-03-23T03:23:53;8.18;;;5.38;;
56519;SDS011;42420;53.586;10.052;2023-03-23T03:28:52;9.90;;;5.75;;
56519;SDS011;42420;53.586;10.052;2023-03-23T03:38:45;11.80;;;6.10;;
56519;SDS011;42420;53.586;10.052;2023-03-23T03:43:42;10.05;;;6.53;;
56519;SDS011;42420;53.586;10.052;2023-03-23T03:48:37;11.13;;;6.43;;
56519;SDS011;42420;53.586;10.052;2023-03-23T03:53:33;10.13;;;6.77;;
56519;SDS011;42420;53.586;10.052;2023-03-23T03:58:29;9.77;;;6.63;;
56519;SDS011;42420;53.586;10.052;2023-03-23T04:03:27;9.32;;;6.60;;
56519;SDS011;42420;53.586;10.052;2023-03-23T04:08:23;11.13;;;6.57;;
56519;SDS011;42420;53.586;10.052;2023-03-23T04:13:22;10.98;;;7.20;;
56519;SDS011;42420;53.586;10.052;2023-03-23T04:18:18;10.17;;;6.43;;
56519;SDS011;42420;53.586;10.052;2023-03-23T04:23:16;9.35;;;5.97;;
56519;SDS011;42420;53.586;10.052;2023-03-23T04:28:18;10.23;;;6.22;;
56519;SDS011;42420;53.586;10.052;2023-03-23T04:33:14;8.95;;;6.00;;
56519;SDS011;42420;53.586;10.052;2023-03-23T04:38:12;8.52;;;6.20;;
56519;SDS011;42420;53.586;10.052;2023-03-23T04:43:10;10.63;;;6.45;;
56519;SDS011;42420;53.586;10.052;2023-03-23T04:48:08;9.85;;;5.75;;
56519;SDS011;42420;53.586;10.052;2023-03-23T04:53:06;9.43;;;6.57;;
56519;SDS011;42420;53.586;10.052;2023-03-23T04:58:09;12.47;;;6.33;;
56519;SDS011;42420;53.586;10.052;2023-03-23T05:03:07;10.02;;;7.07;;
56519;SDS011;42420;53.586;10.052;2023-03-23T05:08:06;10.10;;;7.00;;
56519;SDS011;42420;53.586;10.052;2023-03-23T05:18:47;10.48;;;6.80;;
56519;SDS011;42420;53.586;10.052;2023-03-23T05:23:42;7.00;;;4.43;;
56519;SDS011;42420;53.586;10.052;2023-03-23T05:28:38;10.27;;;6.23;;
56519;SDS011;42420;53.586;10.052;2023-03-23T05:33:38;8.75;;;5.68;;
56519;SDS011;42420;53.586;10.052;2023-03-23T05:38:33;9.18;;;5.75;;
56519;SDS011;42420;53.586;10.052;2023-03-23T07:15:21;12.07;;;4.40;;
56519;SDS011;42420;53.586;10.052;2023-03-23T10:07:12;10.20;;;2.35;;
56519;SDS011;42420;53.586;10.052;2023-03-23T12:45:42;10.82;;;2.67;;
56519;SDS011;42420;53.586;10.052;2023-03-23T12:58:20;8.98;;;2.53;;
56519;SDS011;42420;53.586;10.052;2023-03-23T13:10:45;8.93;;;2.90;;
56519;SDS011;42420;53.586;10.052;2023-03-23T13:29:43;12.32;;;2.95;;
56519;SDS011;42420;53.586;10.052;2023-03-23T13:59:15;6.73;;;2.13;;
56519;SDS011;42420;53.586;10.052;2023-03-23T14:04:23;7.15;;;1.98;;
56519;SDS011;42420;53.586;10.052;2023-03-23T14:09:31;4.70;;;1.00;;
56519;SDS011;42420;53.586;10.052;2023-03-23T14:14:30;6.60;;;1.80;;
56519;SDS011;42420;53.586;10.052;2023-03-23T14:19:28;6.18;;;1.27;;
56519;SDS011;42420;53.586;10.052;2023-03-23T14:24:25;5.85;;;1.05;;
56519;SDS011;42420;53.586;10.052;2023-03-23T14:29:26;7.85;;;1.70;;
56519;SDS011;42420;53.586;10.052;2023-03-23T14:34:23;5.83;;;1.03;;
56519;SDS011;42420;53.586;10.052;2023-03-23T14:39:31;7.50;;;1.90;;
56519;SDS011;42420;53.586;10.052;2023-03-23T14:44:31;7.25;;;1.40;;
56519;SDS011;42420;53.586;10.052;2023-03-23T14:49:35;5.90;;;1.27;;
56519;SDS011;42420;53.586;10.052;2023-03-23T14:54:33;7.13;;;2.35;;
56519;SDS011;42420;53.586;10.052;2023-03-23T14:59:29;6.80;;;1.40;;
56519;SDS011;42420;53.586;10.052;2023-03-23T15:04:25;8.90;;;1.73;;
56519;SDS011;42420;53.586;10.052;2023-03-23T15:09:22;5.95;;;1.30;;
56519;SDS011;42420;53.586;10.052;2023-03-23T15:21:38;7.65;;;1.48;;
56519;SDS011;42420;53.586;10.052;2023-03-23T15:33:48;10.07;;;1.70;;
56519;SDS011;42420;53.586;10.052;2023-03-23T16:03:10;6.28;;;2.20;;
56519;SDS011;42420;53.586;10.052;2023-03-23T16:09:48;4.45;;;1.38;;
56519;SDS011;42420;53.586;10.052;2023-03-23T16:21:42;5.90;;;1.80;;
56519;SDS011;42420;53.586;10.052;2023-03-23T16:46:24;7.70;;;2.38;;
56519;SDS011;42420;53.586;10.052;2023-03-23T16:56:17;8.18;;;3.20;;
56519;SDS011;42420;53.586;10.052;2023-03-23T17:01:15;7.90;;;1.98;;
56519;SDS011;42420;53.586;10.052;2023-03-23T17:06:11;7.25;;;1.80;;
56519;SDS011;42420;53.586;10.052;2023-03-23T17:11:09;8.55;;;2.72;;
56519;SDS011;42420;53.586;10.052;2023-03-23T17:16:10;6.72;;;1.60;;
56519;SDS011;42420;53.586;10.052;2023-03-23T17:21:13;6.35;;;1.60;;
56519;SDS011;42420;53.586;10.052;2023-03-23T17:26:09;8.25;;;2.83;;
56519;SDS011;42420;53.586;10.052;2023-03-23T17:36:07;7.03;;;2.20;;
56519;SDS011;42420;53.586;10.052;2023-03-23T19:45:09;8.10;;;2.55;;
56519;SDS011;42420;53.586;10.052;2023-03-23T19:50:08;6.40;;;2.30;;
56519;SDS011;42420;53.586;10.052;2023-03-23T19:55:05;9.10;;;2.65;;
56519;SDS011;42420;53.586;10.052;2023-03-23T20:00:02;7.43;;;2.15;;
56519;SDS011;42420;53.586;10.052;2023-03-23T20:05:05;6.93;;;2.38;;
56519;SDS011;42420;53.586;10.052;2023-03-23T20:10:04;6.55;;;2.30;;
56519;SDS011;42420;53.586;10.052;2023-03-23T20:15:06;6.85;;;2.25;;
56519;SDS011;42420;53.586;10.052;2023-03-23T20:20:24;6.07;;;2.28;;
56519;SDS011;42420;53.586;10.052;2023-03-23T20:25:21;6.90;;;2.40;;
56519;SDS011;42420;53.586;10.052;2023-03-23T20:30:30;8.82;;;2.70;;
56519;SDS011;42420;53.586;10.052;2023-03-23T20:35:27;7.68;;;2.92;;
56519;SDS011;42420;53.586;10.052;2023-03-23T20:40:24;8.35;;;3.28;;
56519;SDS011;42420;53.586;10.052;2023-03-23T20:45:24;5.88;;;2.88;;
56519;SDS011;42420;53.586;10.052;2023-03-23T20:50:27;8.15;;;3.67;;
56519;SDS011;42420;53.586;10.052;2023-03-23T20:55:24;9.30;;;3.63;;
56519;SDS011;42420;53.586;10.052;2023-03-23T21:00:22;9.38;;;4.00;;
56519;SDS011;42420;53.586;10.052;2023-03-23T21:10:18;8.48;;;4.57;;
56519;SDS011;42420;53.586;10.052;2023-03-23T21:20:11;9.73;;;4.80;;
56519;SDS011;42420;53.586;10.052;2023-03-23T21:25:08;9.25;;;5.05;;
56519;SDS011;42420;53.586;10.052;2023-03-23T21:30:05;9.05;;;4.53;;
56519;SDS011;42420;53.586;10.052;2023-03-23T21:35:02;11.02;;;5.47;;
56519;SDS011;42420;53.586;10.052;2023-03-23T21:40:01;9.95;;;5.38;;
56519;SDS011;42420;53.586;10.052;2023-03-23T21:44:59;9.15;;;5.35;;
56519;SDS011;42420;53.586;10.052;2023-03-23T21:49:58;9.38;;;5.47;;
56519;SDS011;42420;53.586;10.052;2023-03-23T21:54:55;11.32;;;6.03;;
56519;SDS011;42420;53.586;10.052;2023-03-23T21:59:55;10.98;;;6.00;;
56519;SDS011;42420;53.586;10.052;2023-03-23T22:04:55;9.93;;;6.20;;
56519;SDS011;42420;53.586;10.052;2023-03-23T22:09:52;10.10;;;6.15;;
56519;SDS011;42420;53.586;10.052;2023-03-23T22:14:48;11.15;;;6.10;;
56519;SDS011;42420;53.586;10.052;2023-03-23T22:19:47;10.52;;;6.57;;
56519;SDS011;42420;53.586;10.052;2023-03-23T22:24:44;12.15;;;7.00;;
56519;SDS011;42420;53.586;10.052;2023-03-23T22:34:39;11.27;;;6.40;;
56519;SDS011;42420;53.586;10.052;2023-03-23T22:39:36;11.38;;;6.65;;
56519;SDS011;42420;53.586;10.052;2023-03-23T22:44:32;9.90;;;5.60;;
56519;SDS011;42420;53.586;10.052;2023-03-23T22:49:30;10.40;;;5.93;;
56519;SDS011;42420;53.586;10.052;2023-03-23T22:54:27;12.20;;;5.82;;
56519;SDS011;42420;53.586;10.052;2023-03-23T22:59:25;10.55;;;5.63;;
56519;SDS011;42420;53.586;10.052;2023-03-23T23:04:22;9.00;;;5.63;;
56519;SDS011;42420;53.586;10.052;2023-03-23T23:09:18;10.52;;;5.32;;
56519;SDS011;42420;53.586;10.052;2023-03-23T23:14:17;9.32;;;5.32;;
56519;SDS011;42420;53.586;10.052;2023-03-23T23:19:14;11.75;;;5.22;;
56519;SDS011;42420;53.586;10.052;2023-03-23T23:29:07;10.35;;;6.40;;
56519;SDS011;42420;53.586;10.052;2023-03-23T23:34:04;11.07;;;6.63;;
56519;SDS011;42420;53.586;10.052;2023-03-23T23:39:06;8.93;;;4.63;;
56519;SDS011;42420;53.586;10.052;2023-03-23T23:44:03;9.02;;;4.85;;
56519;SDS011;42420;53.586;10.052;2023-03-23T23:49:00;8.68;;;4.70;;
56519;SDS011;42420;53.586;10.052;2023-03-23T23:58:56;9.45;;;4.63;;
